sensor_id;sensor_type;location;lat;lon;timestamp;temperature;humidity
37702;DHT22;23548;51.196;6.838;2023-05-07T00:00:03;15.00;99.90
37702;DHT22;23548;51.196;6.838;2023-05-07T00:02:32;15.00;99.90
37702;DHT22;23548;51.196;6.838;2023-05-07T00:04:58;15.00;99.90
37702;DHT22;23548;51.196;6.838;2023-05-07T00:07:24;15.00;99.90
37702;DHT22;23548;51.196;6.838;2023-05-07T00:09:50;15.00;99.90
37702;DHT22;23548;51.196;6.838;2023-05-07T00:12:15;15.00;99.90
37702;DHT22;23548;51.196;6.838;2023-05-07T00:14:41;15.00;99.90
37702;DHT22;23548;51.196;6.838;2023-05-07T00:17:07;15.00;99.90
37702;DHT22;23548;51.196;6.838;2023-05-07T00:19:33;14.90;99.90
37702;DHT22;23548;51.196;6.838;2023-05-07T00:21:59;14.90;99.90
37702;DHT22;23548;51.196;6.838;2023-05-07T00:24:25;14.80;99.90
37702;DHT22;23548;51.196;6.838;2023-05-07T00:26:50;14.70;99.90
37702;DHT22;23548;51.196;6.838;2023-05-07T00:29:20;14.70;99.90
37702;DHT22;23548;51.196;6.838;2023-05-07T00:31:46;14.60;99.90
37702;DHT22;23548;51.196;6.838;2023-05-07T00:34:12;14.50;99.90
37702;DHT22;23548;51.196;6.838;2023-05-07T00:36:37;14.50;99.90
37702;DHT22;23548;51.196;6.838;2023-05-07T00:39:03;14.50;99.90
37702;DHT22;23548;51.196;6.838;2023-05-07T00:41:30;14.50;99.90
37702;DHT22;23548;51.196;6.838;2023-05-07T00:43:58;14.50;99.90
37702;DHT22;23548;51.196;6.838;2023-05-07T00:46:24;14.50;99.90
37702;DHT22;23548;51.196;6.838;2023-05-07T00:48:51;14.50;99.90
37702;DHT22;23548;51.196;6.838;2023-05-07T00:51:17;14.40;99.90
37702;DHT22;23548;51.196;6.838;2023-05-07T00:53:44;14.50;99.90
37702;DHT22;23548;51.196;6.838;2023-05-07T00:56:10;14.40;99.90
37702;DHT22;23548;51.196;6.838;2023-05-07T00:58:36;14.40;99.90
37702;DHT22;23548;51.196;6.838;2023-05-07T01:01:03;14.50;99.90
37702;DHT22;23548;51.196;6.838;2023-05-07T01:03:29;14.50;99.90
37702;DHT22;23548;51.196;6.838;2023-05-07T01:05:57;14.40;99.90
37702;DHT22;23548;51.196;6.838;2023-05-07T01:08:25;14.40;99.90
37702;DHT22;23548;51.196;6.838;2023-05-07T01:10:54;14.30;99.90
37702;DHT22;23548;51.196;6.838;2023-05-07T01:13:21;14.30;99.90
37702;DHT22;23548;51.196;6.838;2023-05-07T01:15:47;14.30;99.90
37702;DHT22;23548;51.196;6.838;2023-05-07T01:18:13;14.30;99.90
37702;DHT22;23548;51.196;6.838;2023-05-07T01:20:40;14.30;99.90
37702;DHT22;23548;51.196;6.838;2023-05-07T01:23:07;14.30;99.90
37702;DHT22;23548;51.196;6.838;2023-05-07T01:25:33;14.30;99.90
37702;DHT22;23548;51.196;6.838;2023-05-07T01:27:59;14.20;99.90
37702;DHT22;23548;51.196;6.838;2023-05-07T01:30:27;14.10;99.90
37702;DHT22;23548;51.196;6.838;2023-05-07T01:33:03;14.20;99.90
37702;DHT22;23548;51.196;6.838;2023-05-07T01:35:34;14.10;99.90
37702;DHT22;23548;51.196;6.838;2023-05-07T01:38:02;14.10;99.90
37702;DHT22;23548;51.196;6.838;2023-05-07T01:40:30;14.10;99.90
37702;DHT22;23548;51.196;6.838;2023-05-07T01:42:57;14.10;99.90
37702;DHT22;23548;51.196;6.838;2023-05-07T01:45:23;14.10;99.90
37702;DHT22;23548;51.196;6.838;2023-05-07T01:47:49;14.10;99.90
37702;DHT22;23548;51.196;6.838;2023-05-07T01:50:17;14.10;99.90
37702;DHT22;23548;51.196;6.838;2023-05-07T01:52:44;14.00;99.90
37702;DHT22;23548;51.196;6.838;2023-05-07T01:55:10;14.00;99.90
37702;DHT22;23548;51.196;6.838;2023-05-07T01:57:36;14.00;99.90
37702;DHT22;23548;51.196;6.838;2023-05-07T02:00:03;14.00;99.90
37702;DHT22;23548;51.196;6.838;2023-05-07T02:02:30;14.00;99.90
37702;DHT22;23548;51.196;6.838;2023-05-07T02:04:56;14.00;99.90
37702;DHT22;23548;51.196;6.838;2023-05-07T02:07:22;13.90;99.90
37702;DHT22;23548;51.196;6.838;2023-05-07T02:09:48;13.90;99.90
37702;DHT22;23548;51.196;6.838;2023-05-07T02:12:14;13.90;99.90
37702;DHT22;23548;51.196;6.838;2023-05-07T02:14:40;13.90;99.90
37702;DHT22;23548;51.196;6.838;2023-05-07T02:17:05;13.90;99.90
37702;DHT22;23548;51.196;6.838;2023-05-07T02:19:31;13.90;99.90
37702;DHT22;23548;51.196;6.838;2023-05-07T02:21:57;13.90;99.90
37702;DHT22;23548;51.196;6.838;2023-05-07T02:24:24;13.90;99.90
37702;DHT22;23548;51.196;6.838;2023-05-07T02:26:49;13.80;99.90
37702;DHT22;23548;51.196;6.838;2023-05-07T02:29:15;13.90;99.90
37702;DHT22;23548;51.196;6.838;2023-05-07T02:31:41;13.90;99.90
37702;DHT22;23548;51.196;6.838;2023-05-07T02:34:07;13.90;99.90
37702;DHT22;23548;51.196;6.838;2023-05-07T02:36:33;13.80;99.90
37702;DHT22;23548;51.196;6.838;2023-05-07T02:38:58;13.80;99.90
37702;DHT22;23548;51.196;6.838;2023-05-07T02:41:24;13.80;99.90
37702;DHT22;23548;51.196;6.838;2023-05-07T02:43:50;13.80;99.90
37702;DHT22;23548;51.196;6.838;2023-05-07T02:46:15;13.80;99.90
37702;DHT22;23548;51.196;6.838;2023-05-07T02:48:41;13.80;99.90
37702;DHT22;23548;51.196;6.838;2023-05-07T02:51:08;13.80;99.90
37702;DHT22;23548;51.196;6.838;2023-05-07T02:53:34;13.70;99.90
37702;DHT22;23548;51.196;6.838;2023-05-07T02:56:00;13.60;99.90
37702;DHT22;23548;51.196;6.838;2023-05-07T02:58:27;13.60;99.90
37702;DHT22;23548;51.196;6.838;2023-05-07T03:00:53;13.50;99.90
37702;DHT22;23548;51.196;6.838;2023-05-07T03:03:22;13.50;99.90
37702;DHT22;23548;51.196;6.838;2023-05-07T03:05:48;13.60;99.90
37702;DHT22;23548;51.196;6.838;2023-05-07T03:08:14;13.60;99.90
37702;DHT22;23548;51.196;6.838;2023-05-07T03:10:40;13.70;99.90
37702;DHT22;23548;51.196;6.838;2023-05-07T03:13:06;13.70;99.90
37702;DHT22;23548;51.196;6.838;2023-05-07T03:15:31;13.70;99.90
37702;DHT22;23548;51.196;6.838;2023-05-07T03:17:57;13.70;99.90
37702;DHT22;23548;51.196;6.838;2023-05-07T03:20:23;13.70;99.90
37702;DHT22;23548;51.196;6.838;2023-05-07T03:22:49;13.80;99.90
37702;DHT22;23548;51.196;6.838;2023-05-07T03:25:15;13.80;99.90
37702;DHT22;23548;51.196;6.838;2023-05-07T03:27:41;13.70;99.90
37702;DHT22;23548;51.196;6.838;2023-05-07T03:30:10;13.70;99.90
37702;DHT22;23548;51.196;6.838;2023-05-07T03:32:36;13.70;99.90
37702;DHT22;23548;51.196;6.838;2023-05-07T03:35:02;13.70;99.90
37702;DHT22;23548;51.196;6.838;2023-05-07T03:37:28;13.60;99.90
37702;DHT22;23548;51.196;6.838;2023-05-07T03:39:54;13.70;99.90
37702;DHT22;23548;51.196;6.838;2023-05-07T03:42:20;13.60;99.90
37702;DHT22;23548;51.196;6.838;2023-05-07T03:44:46;13.70;99.90
37702;DHT22;23548;51.196;6.838;2023-05-07T03:47:11;13.70;99.90
37702;DHT22;23548;51.196;6.838;2023-05-07T03:49:39;13.70;99.90
37702;DHT22;23548;51.196;6.838;2023-05-07T03:52:05;13.80;99.90
37702;DHT22;23548;51.196;6.838;2023-05-07T03:54:31;13.80;99.90
37702;DHT22;23548;51.196;6.838;2023-05-07T03:56:57;13.70;99.90
37702;DHT22;23548;51.196;6.838;2023-05-07T03:59:23;13.80;99.90
37702;DHT22;23548;51.196;6.838;2023-05-07T04:01:49;13.80;99.90
37702;DHT22;23548;51.196;6.838;2023-05-07T04:04:15;13.80;99.90
37702;DHT22;23548;51.196;6.838;2023-05-07T04:06:41;13.80;99.90
37702;DHT22;23548;51.196;6.838;2023-05-07T04:09:07;13.80;99.90
37702;DHT22;23548;51.196;6.838;2023-05-07T04:11:33;13.80;99.90
37702;DHT22;23548;51.196;6.838;2023-05-07T04:13:59;13.80;99.90
37702;DHT22;23548;51.196;6.838;2023-05-07T04:16:25;13.70;99.90
37702;DHT22;23548;51.196;6.838;2023-05-07T04:18:51;13.70;99.90
37702;DHT22;23548;51.196;6.838;2023-05-07T04:21:18;13.70;99.90
37702;DHT22;23548;51.196;6.838;2023-05-07T04:23:45;13.80;99.90
37702;DHT22;23548;51.196;6.838;2023-05-07T04:26:14;13.90;99.90
37702;DHT22;23548;51.196;6.838;2023-05-07T04:28:40;14.00;99.90
37702;DHT22;23548;51.196;6.838;2023-05-07T04:31:06;14.10;99.90
37702;DHT22;23548;51.196;6.838;2023-05-07T04:33:32;14.10;99.90
37702;DHT22;23548;51.196;6.838;2023-05-07T04:36:02;14.20;99.90
37702;DHT22;23548;51.196;6.838;2023-05-07T04:38:32;14.20;99.90
37702;DHT22;23548;51.196;6.838;2023-05-07T04:41:03;14.20;99.90
37702;DHT22;23548;51.196;6.838;2023-05-07T04:43:29;14.30;99.90
37702;DHT22;23548;51.196;6.838;2023-05-07T04:45:56;14.30;99.90
37702;DHT22;23548;51.196;6.838;2023-05-07T04:48:22;14.40;99.90
37702;DHT22;23548;51.196;6.838;2023-05-07T04:50:49;14.50;99.90
37702;DHT22;23548;51.196;6.838;2023-05-07T04:53:15;14.50;99.90
37702;DHT22;23548;51.196;6.838;2023-05-07T04:55:40;14.50;99.90
37702;DHT22;23548;51.196;6.838;2023-05-07T04:58:07;14.60;99.90
37702;DHT22;23548;51.196;6.838;2023-05-07T05:00:33;14.60;99.90
37702;DHT22;23548;51.196;6.838;2023-05-07T05:02:59;14.70;99.90
37702;DHT22;23548;51.196;6.838;2023-05-07T05:05:25;14.80;99.90
37702;DHT22;23548;51.196;6.838;2023-05-07T05:07:51;14.80;99.90
37702;DHT22;23548;51.196;6.838;2023-05-07T05:10:17;14.80;99.90
37702;DHT22;23548;51.196;6.838;2023-05-07T05:12:43;14.70;99.90
37702;DHT22;23548;51.196;6.838;2023-05-07T05:15:11;14.70;99.90
37702;DHT22;23548;51.196;6.838;2023-05-07T05:17:38;14.80;99.90
37702;DHT22;23548;51.196;6.838;2023-05-07T05:20:04;14.80;99.90
37702;DHT22;23548;51.196;6.838;2023-05-07T05:22:32;14.80;99.90
37702;DHT22;23548;51.196;6.838;2023-05-07T05:24:58;14.90;99.90
37702;DHT22;23548;51.196;6.838;2023-05-07T05:27:28;15.00;99.90
37702;DHT22;23548;51.196;6.838;2023-05-07T05:29:54;15.10;99.90
37702;DHT22;23548;51.196;6.838;2023-05-07T05:32:20;15.30;99.90
37702;DHT22;23548;51.196;6.838;2023-05-07T05:34:46;15.50;99.90
37702;DHT22;23548;51.196;6.838;2023-05-07T05:37:12;15.60;99.90
37702;DHT22;23548;51.196;6.838;2023-05-07T05:39:38;15.60;99.90
37702;DHT22;23548;51.196;6.838;2023-05-07T05:42:04;15.60;99.90
37702;DHT22;23548;51.196;6.838;2023-05-07T05:44:30;15.60;99.90
37702;DHT22;23548;51.196;6.838;2023-05-07T05:46:56;15.80;99.90
37702;DHT22;23548;51.196;6.838;2023-05-07T05:49:25;15.90;99.90
37702;DHT22;23548;51.196;6.838;2023-05-07T05:51:53;16.00;99.90
37702;DHT22;23548;51.196;6.838;2023-05-07T05:54:19;15.90;99.90
37702;DHT22;23548;51.196;6.838;2023-05-07T05:56:45;16.00;99.90
37702;DHT22;23548;51.196;6.838;2023-05-07T05:59:11;16.20;99.90
37702;DHT22;23548;51.196;6.838;2023-05-07T06:01:38;16.20;99.90
37702;DHT22;23548;51.196;6.838;2023-05-07T06:04:04;16.10;99.90
37702;DHT22;23548;51.196;6.838;2023-05-07T06:06:30;16.00;99.90
37702;DHT22;23548;51.196;6.838;2023-05-07T06:08:57;16.00;99.90
37702;DHT22;23548;51.196;6.838;2023-05-07T06:11:22;16.00;99.90
37702;DHT22;23548;51.196;6.838;2023-05-07T06:13:48;16.10;99.90
37702;DHT22;23548;51.196;6.838;2023-05-07T06:16:14;16.20;99.90
37702;DHT22;23548;51.196;6.838;2023-05-07T06:18:40;16.20;99.90
37702;DHT22;23548;51.196;6.838;2023-05-07T06:21:06;16.20;99.90
37702;DHT22;23548;51.196;6.838;2023-05-07T06:23:32;16.40;99.90
37702;DHT22;23548;51.196;6.838;2023-05-07T06:25:57;16.50;99.90
37702;DHT22;23548;51.196;6.838;2023-05-07T06:28:23;16.60;99.90
37702;DHT22;23548;51.196;6.838;2023-05-07T06:30:49;16.40;99.90
37702;DHT22;23548;51.196;6.838;2023-05-07T06:33:15;16.60;99.90
37702;DHT22;23548;51.196;6.838;2023-05-07T06:35:41;16.80;99.90
37702;DHT22;23548;51.196;6.838;2023-05-07T06:38:07;17.00;99.90
37702;DHT22;23548;51.196;6.838;2023-05-07T06:40:32;17.10;99.90
37702;DHT22;23548;51.196;6.838;2023-05-07T06:42:58;17.30;99.90
37702;DHT22;23548;51.196;6.838;2023-05-07T06:45:24;17.30;99.90
37702;DHT22;23548;51.196;6.838;2023-05-07T06:47:50;17.50;99.90
37702;DHT22;23548;51.196;6.838;2023-05-07T06:50:16;17.80;99.90
37702;DHT22;23548;51.196;6.838;2023-05-07T06:52:42;17.90;99.90
37702;DHT22;23548;51.196;6.838;2023-05-07T06:55:09;17.80;99.90
37702;DHT22;23548;51.196;6.838;2023-05-07T06:57:34;17.40;99.90
37702;DHT22;23548;51.196;6.838;2023-05-07T07:00:00;17.40;99.90
37702;DHT22;23548;51.196;6.838;2023-05-07T07:02:26;17.50;99.90
37702;DHT22;23548;51.196;6.838;2023-05-07T07:04:52;17.30;99.90
37702;DHT22;23548;51.196;6.838;2023-05-07T07:07:17;17.40;99.90
37702;DHT22;23548;51.196;6.838;2023-05-07T07:09:43;17.40;99.90
37702;DHT22;23548;51.196;6.838;2023-05-07T07:12:09;17.70;99.90
37702;DHT22;23548;51.196;6.838;2023-05-07T07:14:35;17.90;99.90
37702;DHT22;23548;51.196;6.838;2023-05-07T07:17:01;18.20;99.90
37702;DHT22;23548;51.196;6.838;2023-05-07T07:19:26;18.50;99.90
37702;DHT22;23548;51.196;6.838;2023-05-07T07:21:52;18.60;99.90
37702;DHT22;23548;51.196;6.838;2023-05-07T07:24:18;18.90;99.90
37702;DHT22;23548;51.196;6.838;2023-05-07T07:26:46;18.90;99.90
37702;DHT22;23548;51.196;6.838;2023-05-07T07:29:12;18.90;99.90
37702;DHT22;23548;51.196;6.838;2023-05-07T07:31:39;19.10;99.90
37702;DHT22;23548;51.196;6.838;2023-05-07T07:34:04;19.30;99.90
37702;DHT22;23548;51.196;6.838;2023-05-07T07:36:30;19.60;99.90
37702;DHT22;23548;51.196;6.838;2023-05-07T07:38:56;19.70;99.90
37702;DHT22;23548;51.196;6.838;2023-05-07T07:41:21;19.70;99.90
37702;DHT22;23548;51.196;6.838;2023-05-07T07:43:47;19.50;99.90
37702;DHT22;23548;51.196;6.838;2023-05-07T07:46:13;19.30;99.90
37702;DHT22;23548;51.196;6.838;2023-05-07T07:48:38;19.30;99.90
37702;DHT22;23548;51.196;6.838;2023-05-07T07:51:04;19.50;99.90
37702;DHT22;23548;51.196;6.838;2023-05-07T07:53:30;19.50;99.90
37702;DHT22;23548;51.196;6.838;2023-05-07T07:55:56;19.50;99.90
37702;DHT22;23548;51.196;6.838;2023-05-07T07:58:22;19.70;99.90
37702;DHT22;23548;51.196;6.838;2023-05-07T08:00:48;19.80;99.90
37702;DHT22;23548;51.196;6.838;2023-05-07T08:03:14;19.70;99.90
37702;DHT22;23548;51.196;6.838;2023-05-07T08:05:42;19.60;99.90
37702;DHT22;23548;51.196;6.838;2023-05-07T08:08:08;19.80;99.90
37702;DHT22;23548;51.196;6.838;2023-05-07T08:10:34;20.00;99.90
37702;DHT22;23548;51.196;6.838;2023-05-07T08:13:00;19.90;99.90
37702;DHT22;23548;51.196;6.838;2023-05-07T08:15:27;20.20;99.90
37702;DHT22;23548;51.196;6.838;2023-05-07T08:17:53;20.10;99.90
37702;DHT22;23548;51.196;6.838;2023-05-07T08:20:19;20.20;99.90
37702;DHT22;23548;51.196;6.838;2023-05-07T08:22:44;20.30;99.90
37702;DHT22;23548;51.196;6.838;2023-05-07T08:25:11;20.10;99.90
37702;DHT22;23548;51.196;6.838;2023-05-07T08:27:37;20.70;99.90
37702;DHT22;23548;51.196;6.838;2023-05-07T08:30:03;21.10;99.90
37702;DHT22;23548;51.196;6.838;2023-05-07T08:32:29;21.30;99.90
37702;DHT22;23548;51.196;6.838;2023-05-07T08:34:55;21.30;99.90
37702;DHT22;23548;51.196;6.838;2023-05-07T08:37:21;21.70;99.90
37702;DHT22;23548;51.196;6.838;2023-05-07T08:39:47;21.90;99.90
37702;DHT22;23548;51.196;6.838;2023-05-07T08:42:16;22.10;99.90
37702;DHT22;23548;51.196;6.838;2023-05-07T08:44:45;22.50;99.90
37702;DHT22;23548;51.196;6.838;2023-05-07T08:47:13;23.00;99.90
37702;DHT22;23548;51.196;6.838;2023-05-07T08:49:39;22.70;99.90
37702;DHT22;23548;51.196;6.838;2023-05-07T08:52:05;23.00;99.90
37702;DHT22;23548;51.196;6.838;2023-05-07T08:54:32;23.00;99.90
37702;DHT22;23548;51.196;6.838;2023-05-07T08:56:58;23.00;99.90
37702;DHT22;23548;51.196;6.838;2023-05-07T08:59:23;23.50;99.90
37702;DHT22;23548;51.196;6.838;2023-05-07T09:01:49;23.90;99.90
37702;DHT22;23548;51.196;6.838;2023-05-07T09:04:15;24.00;99.90
37702;DHT22;23548;51.196;6.838;2023-05-07T09:06:41;24.00;99.90
37702;DHT22;23548;51.196;6.838;2023-05-07T09:09:07;24.30;99.90
37702;DHT22;23548;51.196;6.838;2023-05-07T09:11:33;23.90;99.90
37702;DHT22;23548;51.196;6.838;2023-05-07T09:13:59;24.00;99.90
37702;DHT22;23548;51.196;6.838;2023-05-07T09:16:28;23.80;99.90
37702;DHT22;23548;51.196;6.838;2023-05-07T09:18:55;23.90;99.90
37702;DHT22;23548;51.196;6.838;2023-05-07T09:21:21;23.90;99.90
37702;DHT22;23548;51.196;6.838;2023-05-07T09:23:52;23.90;99.90
37702;DHT22;23548;51.196;6.838;2023-05-07T09:26:18;24.10;99.90
37702;DHT22;23548;51.196;6.838;2023-05-07T09:28:46;24.20;99.90
37702;DHT22;23548;51.196;6.838;2023-05-07T09:31:12;24.10;99.90
37702;DHT22;23548;51.196;6.838;2023-05-07T09:33:39;24.50;99.90
37702;DHT22;23548;51.196;6.838;2023-05-07T09:36:06;24.20;99.90
37702;DHT22;23548;51.196;6.838;2023-05-07T09:38:33;24.40;99.90
37702;DHT22;23548;51.196;6.838;2023-05-07T09:43:33;24.60;99.90
37702;DHT22;23548;51.196;6.838;2023-05-07T09:46:12;24.80;99.90
37702;DHT22;23548;51.196;6.838;2023-05-07T09:48:41;24.50;99.90
37702;DHT22;23548;51.196;6.838;2023-05-07T09:53:37;24.10;99.90
37702;DHT22;23548;51.196;6.838;2023-05-07T09:56:04;23.90;99.90
37702;DHT22;23548;51.196;6.838;2023-05-07T09:58:32;24.00;99.90
37702;DHT22;23548;51.196;6.838;2023-05-07T10:00:59;24.10;99.90
37702;DHT22;23548;51.196;6.838;2023-05-07T10:03:27;24.70;99.90
37702;DHT22;23548;51.196;6.838;2023-05-07T10:05:55;24.90;99.90
37702;DHT22;23548;51.196;6.838;2023-05-07T10:08:21;24.50;99.90
37702;DHT22;23548;51.196;6.838;2023-05-07T10:10:48;24.20;99.90
37702;DHT22;23548;51.196;6.838;2023-05-07T10:13:14;24.30;99.90
37702;DHT22;23548;51.196;6.838;2023-05-07T10:15:41;24.50;99.90
37702;DHT22;23548;51.196;6.838;2023-05-07T10:18:08;24.80;99.90
37702;DHT22;23548;51.196;6.838;2023-05-07T10:20:36;24.50;99.90
37702;DHT22;23548;51.196;6.838;2023-05-07T10:23:04;24.40;99.90
37702;DHT22;23548;51.196;6.838;2023-05-07T10:25:32;24.90;99.90
37702;DHT22;23548;51.196;6.838;2023-05-07T10:28:03;25.10;99.90
37702;DHT22;23548;51.196;6.838;2023-05-07T10:33:12;24.00;99.90
37702;DHT22;23548;51.196;6.838;2023-05-07T10:35:41;24.00;99.90
37702;DHT22;23548;51.196;6.838;2023-05-07T10:38:08;24.30;99.90
37702;DHT22;23548;51.196;6.838;2023-05-07T10:40:35;24.70;99.90
37702;DHT22;23548;51.196;6.838;2023-05-07T10:43:02;25.50;99.90
37702;DHT22;23548;51.196;6.838;2023-05-07T10:45:31;25.60;99.90
37702;DHT22;23548;51.196;6.838;2023-05-07T10:48:06;24.80;99.90
37702;DHT22;23548;51.196;6.838;2023-05-07T10:50:32;25.80;99.90
37702;DHT22;23548;51.196;6.838;2023-05-07T10:55:43;26.60;99.30
37702;DHT22;23548;51.196;6.838;2023-05-07T11:00:47;27.20;99.80
37702;DHT22;23548;51.196;6.838;2023-05-07T11:03:14;27.50;97.90
37702;DHT22;23548;51.196;6.838;2023-05-07T11:05:41;27.50;96.80
37702;DHT22;23548;51.196;6.838;2023-05-07T11:08:08;27.00;95.00
37702;DHT22;23548;51.196;6.838;2023-05-07T11:10:50;25.40;95.90
37702;DHT22;23548;51.196;6.838;2023-05-07T11:13:16;25.50;97.70
37702;DHT22;23548;51.196;6.838;2023-05-07T11:15:43;25.70;97.30
37702;DHT22;23548;51.196;6.838;2023-05-07T11:18:11;25.50;97.70
37702;DHT22;23548;51.196;6.838;2023-05-07T11:20:46;24.70;98.20
37702;DHT22;23548;51.196;6.838;2023-05-07T11:28:40;24.90;96.90
37702;DHT22;23548;51.196;6.838;2023-05-07T11:31:07;25.30;97.70
37702;DHT22;23548;51.196;6.838;2023-05-07T11:33:33;26.20;96.50
37702;DHT22;23548;51.196;6.838;2023-05-07T11:36:02;26.50;96.50
37702;DHT22;23548;51.196;6.838;2023-05-07T11:38:29;26.70;95.90
37702;DHT22;23548;51.196;6.838;2023-05-07T11:40:59;27.00;95.80
37702;DHT22;23548;51.196;6.838;2023-05-07T11:43:29;27.40;94.90
37702;DHT22;23548;51.196;6.838;2023-05-07T11:46:09;26.80;93.50
37702;DHT22;23548;51.196;6.838;2023-05-07T11:48:36;26.40;94.40
37702;DHT22;23548;51.196;6.838;2023-05-07T11:51:06;26.70;95.20
37702;DHT22;23548;51.196;6.838;2023-05-07T11:53:38;26.80;93.80
37702;DHT22;23548;51.196;6.838;2023-05-07T11:56:09;26.20;93.50
37702;DHT22;23548;51.196;6.838;2023-05-07T11:58:35;25.90;93.30
37702;DHT22;23548;51.196;6.838;2023-05-07T12:01:01;26.20;92.90
37702;DHT22;23548;51.196;6.838;2023-05-07T12:03:27;26.00;93.00
37702;DHT22;23548;51.196;6.838;2023-05-07T12:05:53;24.90;94.10
37702;DHT22;23548;51.196;6.838;2023-05-07T12:08:20;24.60;95.30
37702;DHT22;23548;51.196;6.838;2023-05-07T12:10:49;24.90;95.30
37702;DHT22;23548;51.196;6.838;2023-05-07T12:13:19;25.10;95.10
37702;DHT22;23548;51.196;6.838;2023-05-07T12:15:45;25.10;95.30
37702;DHT22;23548;51.196;6.838;2023-05-07T12:18:14;25.20;95.80
37702;DHT22;23548;51.196;6.838;2023-05-07T12:20:40;25.70;95.30
37702;DHT22;23548;51.196;6.838;2023-05-07T12:23:06;25.80;94.20
37702;DHT22;23548;51.196;6.838;2023-05-07T12:25:35;25.50;95.00
37702;DHT22;23548;51.196;6.838;2023-05-07T12:28:02;24.90;95.20
37702;DHT22;23548;51.196;6.838;2023-05-07T12:30:39;25.20;94.90
37702;DHT22;23548;51.196;6.838;2023-05-07T12:33:05;25.30;94.80
37702;DHT22;23548;51.196;6.838;2023-05-07T12:35:35;25.40;94.80
37702;DHT22;23548;51.196;6.838;2023-05-07T12:38:01;25.50;94.80
37702;DHT22;23548;51.196;6.838;2023-05-07T12:40:41;25.20;95.90
37702;DHT22;23548;51.196;6.838;2023-05-07T12:43:07;24.70;97.30
37702;DHT22;23548;51.196;6.838;2023-05-07T12:45:37;24.40;98.70
37702;DHT22;23548;51.196;6.838;2023-05-07T12:48:04;24.40;98.10
37702;DHT22;23548;51.196;6.838;2023-05-07T12:50:34;24.30;99.30
37702;DHT22;23548;51.196;6.838;2023-05-07T12:52:59;24.10;99.80
37702;DHT22;23548;51.196;6.838;2023-05-07T12:55:25;24.50;99.70
37702;DHT22;23548;51.196;6.838;2023-05-07T12:57:53;24.00;99.90
37702;DHT22;23548;51.196;6.838;2023-05-07T13:00:36;24.30;99.90
37702;DHT22;23548;51.196;6.838;2023-05-07T13:03:05;24.50;99.90
37702;DHT22;23548;51.196;6.838;2023-05-07T13:05:32;24.70;99.90
37702;DHT22;23548;51.196;6.838;2023-05-07T13:07:58;24.30;99.90
37702;DHT22;23548;51.196;6.838;2023-05-07T13:10:24;24.10;99.90
37702;DHT22;23548;51.196;6.838;2023-05-07T13:12:50;23.90;99.90
37702;DHT22;23548;51.196;6.838;2023-05-07T13:15:17;23.70;99.90
37702;DHT22;23548;51.196;6.838;2023-05-07T13:17:43;23.20;99.90
37702;DHT22;23548;51.196;6.838;2023-05-07T13:20:12;22.90;99.90
37702;DHT22;23548;51.196;6.838;2023-05-07T13:22:39;23.10;99.90
37702;DHT22;23548;51.196;6.838;2023-05-07T13:25:05;22.60;99.90
37702;DHT22;23548;51.196;6.838;2023-05-07T13:27:31;22.30;99.90
37702;DHT22;23548;51.196;6.838;2023-05-07T13:29:57;22.10;99.90
37702;DHT22;23548;51.196;6.838;2023-05-07T13:32:23;21.80;99.90
37702;DHT22;23548;51.196;6.838;2023-05-07T13:34:49;21.50;99.90
37702;DHT22;23548;51.196;6.838;2023-05-07T13:37:15;21.10;99.90
37702;DHT22;23548;51.196;6.838;2023-05-07T13:39:40;20.90;99.90
37702;DHT22;23548;51.196;6.838;2023-05-07T13:42:06;20.70;99.90
37702;DHT22;23548;51.196;6.838;2023-05-07T13:44:32;20.50;99.90
37702;DHT22;23548;51.196;6.838;2023-05-07T13:46:58;20.50;99.90
37702;DHT22;23548;51.196;6.838;2023-05-07T13:49:24;20.20;99.90
37702;DHT22;23548;51.196;6.838;2023-05-07T13:51:50;20.00;99.90
37702;DHT22;23548;51.196;6.838;2023-05-07T13:54:16;19.60;99.90
37702;DHT22;23548;51.196;6.838;2023-05-07T13:56:42;19.30;99.90
37702;DHT22;23548;51.196;6.838;2023-05-07T13:59:08;18.90;99.90
37702;DHT22;23548;51.196;6.838;2023-05-07T14:01:33;18.40;99.90
37702;DHT22;23548;51.196;6.838;2023-05-07T14:03:59;17.80;99.90
37702;DHT22;23548;51.196;6.838;2023-05-07T14:06:25;17.10;99.90
37702;DHT22;23548;51.196;6.838;2023-05-07T14:08:51;16.90;99.90
37702;DHT22;23548;51.196;6.838;2023-05-07T14:11:17;16.40;99.90
37702;DHT22;23548;51.196;6.838;2023-05-07T14:13:43;16.40;99.90
37702;DHT22;23548;51.196;6.838;2023-05-07T14:16:09;16.10;99.90
37702;DHT22;23548;51.196;6.838;2023-05-07T14:18:35;16.00;99.90
37702;DHT22;23548;51.196;6.838;2023-05-07T14:21:02;16.10;99.90
37702;DHT22;23548;51.196;6.838;2023-05-07T14:23:28;16.00;99.90
37702;DHT22;23548;51.196;6.838;2023-05-07T14:25:54;15.80;99.90
37702;DHT22;23548;51.196;6.838;2023-05-07T14:28:20;16.00;99.90
37702;DHT22;23548;51.196;6.838;2023-05-07T14:30:46;16.20;99.90
37702;DHT22;23548;51.196;6.838;2023-05-07T14:33:12;16.40;99.90
37702;DHT22;23548;51.196;6.838;2023-05-07T14:35:37;16.50;99.90
37702;DHT22;23548;51.196;6.838;2023-05-07T14:38:03;16.50;99.90
37702;DHT22;23548;51.196;6.838;2023-05-07T14:40:29;16.50;99.90
37702;DHT22;23548;51.196;6.838;2023-05-07T14:42:55;16.50;99.90
37702;DHT22;23548;51.196;6.838;2023-05-07T14:45:22;16.60;99.90
37702;DHT22;23548;51.196;6.838;2023-05-07T14:47:48;16.60;99.90
37702;DHT22;23548;51.196;6.838;2023-05-07T14:50:14;16.70;99.90
37702;DHT22;23548;51.196;6.838;2023-05-07T14:52:40;16.70;99.90
37702;DHT22;23548;51.196;6.838;2023-05-07T14:55:06;16.80;99.90
37702;DHT22;23548;51.196;6.838;2023-05-07T14:57:32;16.70;99.90
37702;DHT22;23548;51.196;6.838;2023-05-07T15:00:03;16.70;99.90
37702;DHT22;23548;51.196;6.838;2023-05-07T15:02:30;16.90;99.90
37702;DHT22;23548;51.196;6.838;2023-05-07T15:04:55;16.90;99.90
37702;DHT22;23548;51.196;6.838;2023-05-07T15:07:21;17.00;99.90
37702;DHT22;23548;51.196;6.838;2023-05-07T15:09:47;17.10;99.90
37702;DHT22;23548;51.196;6.838;2023-05-07T15:12:13;17.40;99.90
37702;DHT22;23548;51.196;6.838;2023-05-07T15:14:39;17.60;99.90
37702;DHT22;23548;51.196;6.838;2023-05-07T15:17:05;17.50;99.90
37702;DHT22;23548;51.196;6.838;2023-05-07T15:19:31;17.60;99.90
37702;DHT22;23548;51.196;6.838;2023-05-07T15:21:58;17.60;99.90
37702;DHT22;23548;51.196;6.838;2023-05-07T15:24:25;17.70;99.90
37702;DHT22;23548;51.196;6.838;2023-05-07T15:26:52;17.70;99.90
37702;DHT22;23548;51.196;6.838;2023-05-07T15:29:17;18.10;99.90
37702;DHT22;23548;51.196;6.838;2023-05-07T15:31:44;18.20;99.90
37702;DHT22;23548;51.196;6.838;2023-05-07T15:34:09;18.10;99.90
37702;DHT22;23548;51.196;6.838;2023-05-07T15:36:35;18.00;99.90
37702;DHT22;23548;51.196;6.838;2023-05-07T15:39:01;18.00;99.90
37702;DHT22;23548;51.196;6.838;2023-05-07T15:41:28;17.80;99.90
37702;DHT22;23548;51.196;6.838;2023-05-07T15:43:54;17.70;99.90